Stad Amsterdam — PECA — position and weather

sailwx.info

Track history (hours):
 
Tides and Currents Weather Stations Pressure Air Temp Water Temp Dewpoint Dewpoint Depression Visibility Wind Speed Wind Dir Waves Ship Positions

Stad Amsterdam (Netherlands)

Ship's website: http://www.stadamsterdam.com/content/home/index.xml

Last reported at 2017-Feb-28 18:08 UTC. Time now 2017-Mar-24 12:22 UTC.
Position N 18°03' W 063°33'.
Warning: this ship's position is 23 days out of date.

Length 76 m; beam 10 m.

Type: Sailing vessel. MMSI: 246494000.

Date/timePositionNaut miles runAvg speedWind from/ knotsBaromVisibWave heightAir tempDewpointWater temp
2017-Feb-28 18:08N 18°03' W 063°33'6 9.4
2017-Feb-28 17:31N 18°03' W 063°26'10 9.2
2017-Feb-28 16:27N 18°03' W 063°16'8 8.0
2017-Feb-28 15:25N 18°02' W 063°08'  
2017-Feb-25 10:32N 17°36' W 062°47'45 1.1
2017-Feb-23 16:19N 17°03' W 062°15'4 5.4
2017-Feb-23 15:33N 17°02' W 062°10'5 5.3
2017-Feb-23 14:34N 17°01' W 062°05'6 5.7
2017-Feb-23 13:33N 17°00' W 061°59'6 5.8
2017-Feb-23 12:33N 16°59' W 061°53'6 5.8
2017-Feb-23 11:32N 17°01' W 061°47'0 0.0
2017-Feb-23 10:32N 17°01' W 061°47'0 0.0
2017-Feb-23 09:32N 17°01' W 061°47'0 0.0
2017-Feb-23 08:32N 17°01' W 061°47'0 0.0
2017-Feb-23 07:32N 17°01' W 061°47'0 0.0
2017-Feb-23 06:32N 17°01' W 061°47'0 0.0
2017-Feb-23 05:32N 17°01' W 061°47'0 0.0
2017-Feb-23 04:32N 17°01' W 061°47'0 0.0
2017-Feb-23 03:32N 17°01' W 061°47'0 0.0
2017-Feb-23 02:32N 17°01' W 061°47'0 0.0
2017-Feb-23 01:32N 17°01' W 061°47'0 0.0
2017-Feb-23 00:32N 17°01' W 061°47'0 0.0
2017-Feb-22 23:32N 17°01' W 061°47'0 0.0
2017-Feb-22 22:32N 17°01' W 061°47'0 0.0
2017-Feb-22 21:32N 17°01' W 061°47'0 0.0
2017-Feb-22 20:32N 17°01' W 061°47'0 0.1
2017-Feb-22 19:32N 17°01' W 061°47'0 0.0
2017-Feb-22 18:32N 17°01' W 061°47'0 0.1
2017-Feb-22 17:32N 17°01' W 061°47'0 0.0
2017-Feb-22 16:32N 17°01' W 061°47'0 0.0
2017-Feb-22 15:32N 17°01' W 061°47'0 0.0
2017-Feb-22 14:32N 17°01' W 061°47'0 0.0
2017-Feb-22 13:32N 17°01' W 061°47'0 0.0
2017-Feb-22 12:32N 17°01' W 061°47'0 0.0
2017-Feb-22 11:32N 17°01' W 061°47'0 0.0
2017-Feb-22 10:32N 17°01' W 061°47'2 2.3
2017-Feb-22 09:33N 16°59' W 061°45'4 4.1
2017-Feb-22 08:34N 16°57' W 061°42'4 4.4
2017-Feb-22 07:34N 16°54' W 061°38'5 4.6
2017-Feb-22 06:34N 16°51' W 061°34'5 4.5
2017-Feb-22 05:34N 16°49' W 061°31'4 4.5
2017-Feb-22 04:34N 16°46' W 061°27'  
Track history (hours):
 
Tides and Currents Weather Stations Pressure Air Temp Water Temp Dewpoint Dewpoint Depression Visibility Wind Speed Wind Dir Waves Ship Positions

Stad Amsterdam (Netherlands)

Ship's website: http://www.stadamsterdam.com/content/home/index.xml

Last reported at 2017-Feb-28 18:08 UTC. Time now 2017-Mar-24 12:22 UTC.
Position N 18°03' W 063°33'.
Warning: this ship's position is 23 days out of date.

Length 76 m; beam 10 m.

Type: Sailing vessel. MMSI: 246494000.

Date/timePositionNaut miles runAvg speedWind from/ knotsBaromVisibWave heightAir tempDewpointWater temp
2017-Feb-28 18:08N 18°03' W 063°33'6 9.4
2017-Feb-28 17:31N 18°03' W 063°26'10 9.2
2017-Feb-28 16:27N 18°03' W 063°16'8 8.0
2017-Feb-28 15:25N 18°02' W 063°08'  
2017-Feb-25 10:32N 17°36' W 062°47'45 1.1
2017-Feb-23 16:19N 17°03' W 062°15'4 5.4
2017-Feb-23 15:33N 17°02' W 062°10'5 5.3
2017-Feb-23 14:34N 17°01' W 062°05'6 5.7
2017-Feb-23 13:33N 17°00' W 061°59'6 5.8
2017-Feb-23 12:33N 16°59' W 061°53'6 5.8
2017-Feb-23 11:32N 17°01' W 061°47'0 0.0
2017-Feb-23 10:32N 17°01' W 061°47'0 0.0
2017-Feb-23 09:32N 17°01' W 061°47'0 0.0
2017-Feb-23 08:32N 17°01' W 061°47'0 0.0
2017-Feb-23 07:32N 17°01' W 061°47'0 0.0
2017-Feb-23 06:32N 17°01' W 061°47'0 0.0
2017-Feb-23 05:32N 17°01' W 061°47'0 0.0
2017-Feb-23 04:32N 17°01' W 061°47'0 0.0
2017-Feb-23 03:32N 17°01' W 061°47'0 0.0
2017-Feb-23 02:32N 17°01' W 061°47'0 0.0
2017-Feb-23 01:32N 17°01' W 061°47'0 0.0
2017-Feb-23 00:32N 17°01' W 061°47'0 0.0
2017-Feb-22 23:32N 17°01' W 061°47'0 0.0
2017-Feb-22 22:32N 17°01' W 061°47'0 0.0
2017-Feb-22 21:32N 17°01' W 061°47'0 0.0
2017-Feb-22 20:32N 17°01' W 061°47'0 0.1
2017-Feb-22 19:32N 17°01' W 061°47'0 0.0
2017-Feb-22 18:32N 17°01' W 061°47'0 0.1
2017-Feb-22 17:32N 17°01' W 061°47'0 0.0
2017-Feb-22 16:32N 17°01' W 061°47'0 0.0
2017-Feb-22 15:32N 17°01' W 061°47'0 0.0
2017-Feb-22 14:32N 17°01' W 061°47'0 0.0
2017-Feb-22 13:32N 17°01' W 061°47'0 0.0
2017-Feb-22 12:32N 17°01' W 061°47'0 0.0
2017-Feb-22 11:32N 17°01' W 061°47'0 0.0
2017-Feb-22 10:32N 17°01' W 061°47'2 2.3
2017-Feb-22 09:33N 16°59' W 061°45'4 4.1
2017-Feb-22 08:34N 16°57' W 061°42'4 4.4
2017-Feb-22 07:34N 16°54' W 061°38'5 4.6
2017-Feb-22 06:34N 16°51' W 061°34'5 4.5
2017-Feb-22 05:34N 16°49' W 061°31'4 4.5
2017-Feb-22 04:34N 16°46' W 061°27'  

Dump ship's entire track history